Time;durP1;ratioP1;P1;durP2;ratioP2;P2;SDS_P1;SDS_P2;PMS_P1;PMS_P2;Temp;Humidity;BMP_temperature;BMP_pressure;BME280_temperature;BME280_humidity;BME280_pressure;Samples;Min_cycle;Max_cycle;Signal;HPM_P1;HPM_P2
2021/09/04 04:31:20;;;;;;;10.53;8.57;;;10.40;99.90;;;;;;5725718;23;20499;-78
2021/09/04 04:33:46;;;;;;;9.30;8.20;;;10.40;99.90;;;;;;5023113;28;20774;-79
2021/09/04 04:36:11;;;;;;;8.90;7.80;;;10.40;99.90;;;;;;5031115;28;20277;-78
2021/09/04 04:38:37;;;;;;;11.03;8.97;;;10.40;99.90;;;;;;5023300;28;20252;-79
2021/09/04 04:41:03;;;;;;;10.13;8.47;;;10.40;99.90;;;;;;5032629;28;20194;-79
2021/09/04 04:43:29;;;;;;;10.77;8.80;;;10.40;99.90;;;;;;5032699;28;20253;-79
2021/09/04 04:45:55;;;;;;;10.80;8.57;;;10.30;99.90;;;;;;5032524;28;20427;-79
2021/09/04 04:48:20;;;;;;;10.33;7.90;;;10.30;99.90;;;;;;5033366;28;20416;-79
2021/09/04 04:50:46;;;;;;;10.77;9.00;;;10.30;99.90;;;;;;5032850;28;20189;-79
2021/09/04 04:53:12;;;;;;;16.43;9.77;;;10.30;99.90;;;;;;5032945;28;20686;-79
2021/09/04 04:55:38;;;;;;;12.53;8.80;;;10.30;99.90;;;;;;5033045;28;20170;-78
2021/09/04 04:58:03;;;;;;;10.40;8.53;;;10.30;99.90;;;;;;5032706;28;20482;-79
2021/09/04 05:00:29;;;;;;;10.13;9.13;;;10.30;99.90;;;;;;5032599;28;20515;-78
2021/09/04 05:02:55;;;;;;;11.47;8.63;;;10.30;99.90;;;;;;5032230;28;20208;-78
2021/09/04 05:05:20;;;;;;;9.90;8.77;;;10.30;99.90;;;;;;5034563;28;20180;-79
2021/09/04 05:07:46;;;;;;;10.53;8.10;;;10.30;99.90;;;;;;5034073;28;20181;-78
2021/09/04 05:10:11;;;;;;;8.73;7.70;;;10.30;99.90;;;;;;5034283;28;20208;-80
2021/09/04 05:12:37;;;;;;;10.50;9.13;;;10.30;99.90;;;;;;5034134;28;20204;-77
2021/09/04 05:15:03;;;;;;;11.27;7.13;;;10.40;99.90;;;;;;5034717;28;20268;-80
2021/09/04 05:17:29;;;;;;;11.10;9.60;;;10.40;99.90;;;;;;5034085;28;20215;-80
2021/09/04 05:19:54;;;;;;;12.60;9.37;;;10.50;99.90;;;;;;5034380;28;20525;-79
2021/09/04 05:22:20;;;;;;;11.40;8.40;;;10.50;99.90;;;;;;5033753;28;20761;-79
2021/09/04 05:24:46;;;;;;;10.97;8.90;;;10.50;99.90;;;;;;5033887;28;20654;-79
2021/09/04 05:27:11;;;;;;;12.50;8.80;;;10.60;99.90;;;;;;5033820;28;20177;-79
2021/09/04 05:29:37;;;;;;;11.20;8.50;;;10.70;99.90;;;;;;5033962;28;20496;-80
2021/09/04 05:32:03;;;;;;;10.03;9.00;;;10.80;99.90;;;;;;5033252;28;20217;-79
2021/09/04 05:34:28;;;;;;;10.87;9.10;;;10.90;99.90;;;;;;5033737;28;20194;-80
2021/09/04 05:36:54;;;;;;;15.10;7.80;;;11.10;99.90;;;;;;5034061;28;20987;-78
2021/09/04 05:39:20;;;;;;;12.20;9.27;;;11.30;99.90;;;;;;5016163;28;20178;-80
2021/09/04 05:41:45;;;;;;;14.83;9.00;;;11.50;99.90;;;;;;5033483;28;20190;-78
2021/09/04 05:44:10;;;;;;;9.30;8.17;;;11.60;99.90;;;;;;5033987;28;20174;-80
2021/09/04 05:46:36;;;;;;;11.17;8.37;;;11.80;99.90;;;;;;5034038;28;20176;-80
2021/09/04 05:49:02;;;;;;;12.00;9.60;;;12.00;99.90;;;;;;5015753;28;20174;-80
2021/09/04 05:51:27;;;;;;;13.13;9.33;;;12.20;99.90;;;;;;5033565;28;20233;-79
2021/09/04 05:53:53;;;;;;;15.70;9.50;;;12.40;99.90;;;;;;5033874;28;20208;-80
2021/09/04 05:56:18;;;;;;;9.57;8.57;;;12.80;99.90;;;;;;5034016;28;20174;-80
2021/09/04 05:58:44;;;;;;;11.67;9.07;;;13.10;99.90;;;;;;5033436;28;20209;-79
2021/09/04 06:01:09;;;;;;;10.83;9.03;;;13.50;99.90;;;;;;5033486;28;20218;-79
2021/09/04 06:03:36;;;;;;;11.20;8.90;;;13.70;99.90;;;;;;5033537;28;20702;-79
2021/09/04 06:06:02;;;;;;;12.40;9.17;;;13.90;99.90;;;;;;5033853;28;20172;-80
2021/09/04 06:08:27;;;;;;;18.10;9.67;;;14.20;99.90;;;;;;5033491;28;20412;-80
2021/09/04 06:10:53;;;;;;;11.73;9.30;;;14.60;99.90;;;;;;5015811;28;20205;-80
2021/09/04 06:13:19;;;;;;;9.30;7.87;;;15.00;99.90;;;;;;5033909;28;20178;-80
2021/09/04 06:15:45;;;;;;;15.83;10.07;;;15.50;99.90;;;;;;5016276;28;20215;-80
2021/09/04 06:18:12;;;;;;;11.70;8.47;;;16.00;99.90;;;;;;5035392;28;20201;-80
2021/09/04 06:20:37;;;;;;;14.00;9.43;;;16.60;99.90;;;;;;5037096;28;20405;-80
2021/09/04 06:23:03;;;;;;;12.33;9.53;;;17.10;99.90;;;;;;5036754;28;20487;-80
2021/09/04 06:25:28;;;;;;;10.90;8.40;;;17.50;99.90;;;;;;5036924;28;20185;-80
2021/09/04 06:27:54;;;;;;;10.30;8.67;;;18.00;99.90;;;;;;5036437;28;20178;-79
2021/09/04 06:30:20;;;;;;;9.77;8.73;;;18.50;99.90;;;;;;5036805;28;20185;-80
2021/09/04 06:32:45;;;;;;;12.33;8.70;;;18.60;99.90;;;;;;5036692;28;20690;-80
2021/09/04 06:35:11;;;;;;;14.33;9.10;;;18.70;99.90;;;;;;5036580;28;20178;-80
2021/09/04 06:37:37;;;;;;;12.20;9.73;;;19.00;99.90;;;;;;5037130;28;20280;-80
2021/09/04 06:40:04;;;;;;;16.43;10.10;;;19.20;99.90;;;;;;5037375;28;20180;-80
2021/09/04 06:42:29;;;;;;;11.97;10.07;;;19.40;99.90;;;;;;5037345;28;20205;-80
2021/09/04 06:44:55;;;;;;;15.63;10.40;;;19.50;99.90;;;;;;5037788;28;20413;-80
2021/09/04 06:47:20;;;;;;;13.20;9.83;;;19.70;99.90;;;;;;5037802;28;20186;-80
2021/09/04 06:49:46;;;;;;;14.30;10.33;;;20.00;99.90;;;;;;5037945;28;20674;-81
2021/09/04 06:52:11;;;;;;;11.17;9.57;;;20.30;99.90;;;;;;5037794;28;20198;-80
2021/09/04 06:54:37;;;;;;;12.93;10.53;;;20.50;99.90;;;;;;5037579;28;20269;-81
2021/09/04 06:57:03;;;;;;;10.77;9.40;;;20.70;99.90;;;;;;5037572;28;20208;-81
2021/09/04 06:59:29;;;;;;;11.03;9.53;;;20.90;99.90;;;;;;5036213;28;20198;-81
2021/09/04 07:01:55;;;;;;;12.67;8.93;;;21.20;99.90;;;;;;5036637;28;20440;-80
2021/09/04 07:04:20;;;;;;;10.93;9.80;;;21.20;99.90;;;;;;5037088;28;20413;-81
2021/09/04 07:06:46;;;;;;;15.70;10.00;;;21.30;99.90;;;;;;5037249;28;20205;-81
2021/09/04 07:09:11;;;;;;;13.70;9.90;;;21.50;99.90;;;;;;5037276;28;20170;-81
2021/09/04 07:11:37;;;;;;;15.20;8.77;;;21.80;99.90;;;;;;5037269;28;20722;-80
2021/09/04 07:14:02;;;;;;;12.03;9.03;;;21.90;99.90;;;;;;5036594;28;20174;-80
2021/09/04 07:16:28;;;;;;;10.40;9.30;;;22.00;99.90;;;;;;5037683;28;20236;-81
2021/09/04 07:18:53;;;;;;;12.70;9.43;;;22.20;99.90;;;;;;5037052;28;20284;-82
2021/09/04 07:21:19;;;;;;;10.90;9.20;;;22.40;99.90;;;;;;5036768;28;20221;-81
2021/09/04 07:23:44;;;;;;;12.50;9.73;;;22.70;99.90;;;;;;5036422;28;20170;-81
2021/09/04 07:26:10;;;;;;;9.97;8.23;;;22.90;99.90;;;;;;5037138;28;20647;-81
2021/09/04 07:28:36;;;;;;;11.43;9.13;;;23.20;99.90;;;;;;5035870;28;20557;-79
2021/09/04 07:31:01;;;;;;;10.23;9.00;;;23.10;99.90;;;;;;5035128;28;20194;-81
2021/09/04 07:33:27;;;;;;;12.10;8.60;;;23.30;99.90;;;;;;5017631;28;20601;-81
2021/09/04 07:35:53;;;;;;;10.50;8.97;;;23.50;99.90;;;;;;5034721;28;20174;-81
2021/09/04 07:38:19;;;;;;;10.27;9.13;;;23.50;99.90;;;;;;5017409;28;20559;-80
2021/09/04 07:40:45;;;;;;;16.93;9.87;;;23.30;99.90;;;;;;5035221;28;20174;-81
2021/09/04 07:43:11;;;;;;;11.63;8.90;;;23.50;99.90;;;;;;5034769;28;20169;-81
2021/09/04 07:45:37;;;;;;;10.67;8.10;;;23.90;99.90;;;;;;5035046;28;20413;-81
2021/09/04 07:48:03;;;;;;;10.27;8.60;;;23.90;99.90;;;;;;5034917;28;20547;-82
2021/09/04 07:50:29;;;;;;;10.57;8.73;;;24.30;99.90;;;;;;5035677;28;20508;-80
2021/09/04 07:52:55;;;;;;;14.33;8.30;;;24.60;99.90;;;;;;5035120;28;20448;-81
2021/09/04 07:55:20;;;;;;;9.53;8.63;;;24.80;99.90;;;;;;5035454;28;20408;-82
2021/09/04 07:57:46;;;;;;;9.33;8.10;;;24.80;99.90;;;;;;5035576;28;20206;-82
2021/09/04 08:00:13;;;;;;;12.33;8.17;;;24.40;99.90;;;;;;5036278;28;20248;-82
2021/09/04 08:02:39;;;;;;;10.10;8.33;;;24.80;99.90;;;;;;5035721;28;20198;-81
2021/09/04 08:05:05;;;;;;;9.80;7.27;;;25.00;99.90;;;;;;5035676;28;20463;-82
2021/09/04 08:07:30;;;;;;;8.93;7.70;;;25.20;99.90;;;;;;5035452;28;20177;-82
2021/09/04 08:09:56;;;;;;;8.60;7.80;;;25.40;99.90;;;;;;5035114;28;20421;-82
2021/09/04 08:12:22;;;;;;;9.77;7.97;;;25.30;99.90;;;;;;5035365;28;20193;-82
2021/09/04 08:14:47;;;;;;;9.50;8.07;;;25.60;99.90;;;;;;5035492;28;20185;-82
2021/09/04 08:17:13;;;;;;;9.63;8.10;;;25.90;99.90;;;;;;5035204;28;20209;-82
2021/09/04 08:19:38;;;;;;;9.77;8.50;;;26.20;99.90;;;;;;5035102;28;20182;-82
2021/09/04 08:22:04;;;;;;;8.80;7.90;;;25.90;99.90;;;;;;5034717;28;20198;-82
2021/09/04 08:24:31;;;;;;;11.83;8.40;;;26.20;99.90;;;;;;5035930;28;20234;-82
2021/09/04 08:26:57;;;;;;;13.13;8.93;;;26.00;99.90;;;;;;5034901;28;20236;-82
2021/09/04 08:29:22;;;;;;;8.07;7.23;;;25.90;99.90;;;;;;5017368;28;20835;-82
2021/09/04 08:31:48;;;;;;;8.40;7.70;;;26.10;99.90;;;;;;5016427;28;20698;-82
2021/09/04 08:34:14;;;;;;;8.10;7.30;;;26.10;99.90;;;;;;5033922;28;20213;-82
2021/09/04 08:36:39;;;;;;;7.07;6.37;;;26.20;99.90;;;;;;5034511;28;20261;-82
2021/09/04 08:39:05;;;;;;;12.50;8.20;;;26.20;99.90;;;;;;5034228;28;20181;-82
2021/09/04 08:41:30;;;;;;;10.80;8.17;;;26.40;99.90;;;;;;5034066;28;20190;-82
2021/09/04 08:43:58;;;;;;;8.13;6.63;;;26.60;99.90;;;;;;5033889;28;20350;-83
2021/09/04 08:46:24;;;;;;;7.60;6.73;;;27.00;99.90;;;;;;5034401;28;20170;-82
2021/09/04 08:48:51;;;;;;;8.27;7.50;;;27.20;99.90;;;;;;5034862;28;20413;-82
2021/09/04 08:51:17;;;;;;;9.93;7.50;;;27.40;99.90;;;;;;5034828;28;20694;-82
2021/09/04 08:53:43;;;;;;;8.50;6.43;;;27.70;99.90;;;;;;5034137;28;20693;-82
2021/09/04 08:56:09;;;;;;;10.67;8.00;;;27.80;99.90;;;;;;5034208;28;20192;-83
2021/09/04 08:58:36;;;;;;;7.63;5.80;;;27.90;99.90;;;;;;5034200;28;20678;-82
2021/09/04 09:01:02;;;;;;;11.33;8.00;;;28.10;99.90;;;;;;5034342;28;20440;-83
2021/09/04 09:03:31;;;;;;;7.47;6.77;;;28.40;99.90;;;;;;5033556;28;20607;-82
2021/09/04 09:05:59;;;;;;;7.90;6.73;;;28.40;99.90;;;;;;5033269;28;20409;-82
2021/09/04 09:08:27;;;;;;;7.90;6.10;;;28.00;99.90;;;;;;5034370;28;20431;-82
2021/09/04 09:10:55;;;;;;;7.93;7.13;;;27.90;99.90;;;;;;5033799;28;20490;-82
2021/09/04 09:13:22;;;;;;;6.07;5.67;;;27.80;99.90;;;;;;5033511;28;20424;-83
2021/09/04 09:15:50;;;;;;;7.17;6.43;;;27.50;99.90;;;;;;5034883;28;20413;-82
2021/09/04 09:18:17;;;;;;;9.00;6.13;;;28.00;99.90;;;;;;5015730;28;20529;-82
2021/09/04 09:21:00;;;;;;;7.30;6.60;;;28.00;99.90;;;;;;5033242;28;20447;-83
2021/09/04 09:23:26;;;;;;;5.70;5.20;;;27.80;99.90;;;;;;5033403;28;20439;-83
2021/09/04 09:25:52;;;;;;;7.53;6.73;;;28.10;99.90;;;;;;5033403;28;20423;-82
2021/09/04 09:28:20;;;;;;;7.10;6.20;;;28.40;99.90;;;;;;5015736;28;20409;-82
2021/09/04 09:30:46;;;;;;;6.33;5.63;;;28.70;99.90;;;;;;5015668;28;20205;-82
2021/09/04 09:33:14;;;;;;;6.13;5.63;;;28.50;99.90;;;;;;5033202;28;20429;-82
2021/09/04 09:35:42;;;;;;;5.43;4.93;;;28.00;99.90;;;;;;5033074;28;20459;-83
2021/09/04 09:38:10;;;;;;;6.03;5.53;;;28.40;99.90;;;;;;5032966;28;20503;-83
2021/09/04 09:40:37;;;;;;;5.93;5.07;;;29.10;99.90;;;;;;5032735;28;20405;-83
2021/09/04 09:43:15;;;;;;;5.27;4.77;;;29.30;99.90;;;;;;5032638;28;20500;-84
2021/09/04 09:45:52;;;;;;;6.50;5.33;;;29.50;99.90;;;;;;5032883;28;20925;-83
2021/09/04 09:48:23;;;;;;;5.97;5.03;;;29.30;99.90;;;;;;5032687;28;20449;-83
2021/09/04 09:50:50;;;;;;;7.23;5.50;;;29.40;99.90;;;;;;5033571;28;20440;-83
2021/09/04 09:53:17;;;;;;;6.97;6.27;;;29.20;99.90;;;;;;5031927;28;20786;-83
2021/09/04 09:55:46;;;;;;;9.00;5.60;;;29.50;99.90;;;;;;5015182;28;20951;-83
2021/09/04 09:58:13;;;;;;;5.20;4.80;;;29.80;99.90;;;;;;5035569;28;20621;-83
2021/09/04 10:00:40;;;;;;;6.23;5.10;;;30.30;99.90;;;;;;5033219;28;20416;-83
2021/09/04 10:03:07;;;;;;;15.60;6.00;;;30.70;99.90;;;;;;5032466;28;20492;-82
2021/09/04 10:05:33;;;;;;;5.17;4.70;;;30.50;99.90;;;;;;5032540;28;20413;-83
2021/09/04 10:07:59;;;;;;;5.67;5.17;;;30.20;99.90;;;;;;5033134;28;20428;-83
2021/09/04 10:10:30;;;;;;;5.20;4.70;;;29.80;99.90;;;;;;5032564;28;20565;-83
2021/09/04 10:12:57;;;;;;;4.33;4.03;;;30.10;99.90;;;;;;5032461;28;20424;-83
2021/09/04 10:15:27;;;;;;;6.20;4.77;;;30.40;99.90;;;;;;5032389;28;20420;-83
2021/09/04 10:17:55;;;;;;;4.73;4.33;;;30.80;99.90;;;;;;5032009;28;20464;-81
2021/09/04 10:20:25;;;;;;;5.70;4.60;;;30.70;99.90;;;;;;5032556;28;20409;-83
2021/09/04 10:22:55;;;;;;;5.13;4.40;;;30.50;99.90;;;;;;5031840;28;20964;-83
2021/09/04 10:25:21;;;;;;;4.63;3.30;;;30.70;99.90;;;;;;5014172;28;20848;-82
2021/09/04 10:27:49;;;;;;;4.33;3.93;;;30.50;99.90;;;;;;5032396;28;20436;-82
2021/09/04 10:30:26;;;;;;;3.43;2.70;;;30.90;99.90;;;;;;5036200;28;20417;-83
2021/09/04 10:33:02;;;;;;;4.00;3.60;;;30.80;99.90;;;;;;5039577;28;20474;-82
2021/09/04 10:35:54;;;;;;;5.00;4.30;;;30.40;99.90;;;;;;5034766;28;20474;-82
2021/09/04 10:38:19;;;;;;;4.13;3.30;;;30.00;99.90;;;;;;5034509;28;20783;-82
2021/09/04 10:40:50;;;;;;;5.20;3.57;;;29.80;99.90;;;;;;5034609;28;20832;-83
2021/09/04 10:43:18;;;;;;;4.70;4.20;;;30.10;99.90;;;;;;5041024;28;20166;-84
2021/09/04 10:45:46;;;;;;;5.90;4.13;;;30.00;99.90;;;;;;5039269;28;20417;-84
2021/09/04 10:48:16;;;;;;;3.67;3.40;;;29.90;99.60;;;;;;5038818;28;20420;-81
2021/09/04 10:50:59;;;;;;;8.03;4.50;;;30.00;99.90;;;;;;5035568;28;20421;-83
2021/09/04 10:53:50;;;;;;;4.63;4.30;;;30.60;99.90;;;;;;5035154;28;20547;-83
2021/09/04 10:56:23;;;;;;;4.63;4.23;;;30.80;99.90;;;;;;5034860;28;20409;-82
2021/09/04 10:58:50;;;;;;;5.10;4.60;;;31.10;99.90;;;;;;5034648;28;20591;-83
2021/09/04 11:01:18;;;;;;;5.20;4.60;;;31.40;99.90;;;;;;5034687;28;20424;-83
2021/09/04 11:03:52;;;;;;;7.57;5.03;;;31.10;99.80;;;;;;5018546;28;20448;-82
2021/09/04 11:06:21;;;;;;;6.10;4.90;;;30.70;99.90;;;;;;5037999;28;20485;-82
2021/09/04 11:08:47;;;;;;;7.80;4.37;;;30.40;99.90;;;;;;5038579;28;20470;-82
2021/09/04 11:11:29;;;;;;;7.50;4.40;;;30.50;99.90;;;;;;5038372;28;20437;-82
2021/09/04 11:13:56;;;;;;;6.43;4.70;;;30.50;99.90;;;;;;5021270;28;20655;-82
2021/09/04 11:16:40;;;;;;;4.87;4.57;;;30.10;99.90;;;;;;5039114;28;20484;-82
2021/09/04 11:19:08;;;;;;;5.13;4.63;;;29.90;99.90;;;;;;5038970;28;20466;-82
2021/09/04 11:21:48;;;;;;;5.37;4.87;;;30.10;99.90;;;;;;5039733;28;20431;-83
2021/09/04 11:24:38;;;;;;;9.57;5.10;;;30.20;99.90;;;;;;5038149;28;20404;-81
2021/09/04 11:27:11;;;;;;;5.83;5.23;;;29.80;99.90;;;;;;5019648;28;20425;-83
2021/09/04 11:29:39;;;;;;;5.57;5.10;;;29.80;99.90;;;;;;5038862;28;20413;-81
2021/09/04 11:32:05;;;;;;;5.40;4.90;;;30.00;99.90;;;;;;5038529;28;20448;-83
2021/09/04 11:34:40;;;;;;;5.37;4.90;;;29.70;99.90;;;;;;5039064;28;20712;-82
2021/09/04 11:37:20;;;;;;;6.27;5.53;;;29.60;99.90;;;;;;5038392;28;20246;-82
2021/09/04 11:39:48;;;;;;;4.90;4.50;;;29.30;99.90;;;;;;5038927;28;20411;-82
2021/09/04 11:42:18;;;;;;;5.43;4.93;;;29.10;99.90;;;;;;5038654;28;20425;-82
2021/09/04 11:44:49;;;;;;;6.13;5.50;;;29.00;99.90;;;;;;5038617;28;20443;-83
2021/09/04 11:47:15;;;;;;;5.37;4.83;;;28.30;99.90;;;;;;5038096;28;20412;-82
2021/09/04 11:50:11;;;;;;;4.43;4.13;;;28.30;99.90;;;;;;5038991;28;20405;-82
2021/09/04 11:52:40;;;;;;;5.60;4.33;;;28.40;99.90;;;;;;5025961;28;20268;-82
2021/09/04 11:55:14;;;;;;;5.10;4.60;;;28.70;99.90;;;;;;5038289;28;20409;-82
2021/09/04 11:57:43;;;;;;;5.20;4.80;;;28.70;99.90;;;;;;5038679;28;20521;-82
2021/09/04 12:00:19;;;;;;;5.00;4.60;;;28.70;99.90;;;;;;5039463;28;20788;-82
2021/09/04 12:03:00;;;;;;;6.00;5.37;;;28.80;99.90;;;;;;5039036;28;20440;-82
2021/09/04 12:05:30;;;;;;;5.40;4.40;;;28.60;99.90;;;;;;5039458;28;20827;-82
2021/09/04 12:08:05;;;;;;;6.50;4.60;;;28.40;99.90;;;;;;5038120;28;20466;-82
2021/09/04 12:10:34;;;;;;;6.30;3.97;;;28.30;99.90;;;;;;5038213;28;20980;-82
2021/09/04 12:13:01;;;;;;;6.40;3.80;;;28.20;99.90;;;;;;5038104;28;20417;-82
2021/09/04 12:15:30;;;;;;;4.30;4.00;;;28.20;99.90;;;;;;5037052;28;20917;-82
2021/09/04 12:18:01;;;;;;;4.47;4.10;;;28.20;99.90;;;;;;5036982;28;20496;-82
2021/09/04 12:20:36;;;;;;;4.77;4.37;;;28.20;99.90;;;;;;5038409;28;20413;-80
2021/09/04 12:23:11;;;;;;;5.03;4.70;;;28.00;99.90;;;;;;5037720;28;20755;-82
2021/09/04 12:25:37;;;;;;;4.30;4.00;;;27.60;99.90;;;;;;5038601;28;20472;-82
2021/09/04 12:28:27;;;;;;;4.70;4.20;;;27.40;99.90;;;;;;5038179;28;20494;-81
2021/09/04 12:31:08;;;;;;;4.57;4.17;;;27.30;99.90;;;;;;5037451;28;20213;-82
2021/09/04 12:33:54;;;;;;;4.67;4.27;;;27.40;99.90;;;;;;5038794;28;20810;-81
2021/09/04 12:36:25;;;;;;;4.90;4.40;;;27.40;99.90;;;;;;5037955;28;20411;-82
2021/09/04 12:38:51;;;;;;;4.00;3.70;;;27.20;99.90;;;;;;5038278;28;20467;-81
2021/09/04 12:41:18;;;;;;;3.90;3.60;;;27.20;99.90;;;;;;5038753;28;20428;-82
2021/09/04 12:43:55;;;;;;;4.40;3.90;;;27.10;99.90;;;;;;5037592;28;20400;-81
2021/09/04 12:46:26;;;;;;;5.43;3.50;;;27.10;99.90;;;;;;5038118;28;20441;-81
2021/09/04 12:48:52;;;;;;;3.77;3.40;;;26.80;99.90;;;;;;5038050;28;20412;-81
2021/09/04 12:51:17;;;;;;;5.10;4.10;;;26.70;99.90;;;;;;5037841;28;20496;-81
2021/09/04 12:54:00;;;;;;;4.33;3.90;;;26.80;99.90;;;;;;5038067;28;20178;-82
2021/09/04 12:56:43;;;;;;;4.27;3.87;;;26.60;99.90;;;;;;5037919;28;20208;-80
2021/09/04 12:59:11;;;;;;;5.07;4.60;;;26.60;99.90;;;;;;5038137;28;20464;-79
2021/09/04 13:01:37;;;;;;;3.63;3.37;;;26.70;99.90;;;;;;5038054;28;20964;-81
2021/09/04 13:04:10;;;;;;;3.57;3.33;;;26.80;99.90;;;;;;5037282;28;20500;-81
2021/09/04 13:06:36;;;;;;;3.90;3.60;;;26.60;99.90;;;;;;5019751;28;20444;-81
2021/09/04 13:09:03;;;;;;;3.83;3.53;;;26.50;99.90;;;;;;5037353;28;20944;-81
2021/09/04 13:11:29;;;;;;;4.70;4.00;;;26.50;99.90;;;;;;5037384;28;20546;-79
2021/09/04 13:13:55;;;;;;;3.87;3.43;;;26.60;99.90;;;;;;5036679;28;20519;-81
2021/09/04 13:16:21;;;;;;;4.17;3.80;;;26.60;99.90;;;;;;5037915;28;20173;-81
2021/09/04 13:18:49;;;;;;;3.77;3.33;;;26.60;99.90;;;;;;5037573;28;20472;-81
2021/09/04 13:21:15;;;;;;;4.00;3.27;;;26.40;99.90;;;;;;5036841;28;20268;-80
2021/09/04 13:23:42;;;;;;;4.00;3.70;;;26.30;99.90;;;;;;5037270;28;20952;-81
2021/09/04 13:26:08;;;;;;;4.03;3.73;;;26.30;99.90;;;;;;5019235;28;20421;-80
2021/09/04 13:28:33;;;;;;;4.80;4.40;;;26.20;99.90;;;;;;5037459;28;20849;-81
2021/09/04 13:31:01;;;;;;;4.83;4.10;;;26.10;99.90;;;;;;5036826;28;20440;-81
2021/09/04 13:33:27;;;;;;;5.63;3.63;;;26.00;99.90;;;;;;5037063;28;20231;-81
2021/09/04 13:35:53;;;;;;;4.10;3.60;;;25.90;99.90;;;;;;5036653;28;20443;-81
2021/09/04 13:38:18;;;;;;;4.10;3.80;;;25.90;99.90;;;;;;5036794;28;20452;-80
2021/09/04 13:40:44;;;;;;;4.27;3.90;;;26.00;99.90;;;;;;5037281;28;20170;-81
2021/09/04 13:43:09;;;;;;;4.50;3.93;;;26.00;99.90;;;;;;5036998;28;20237;-81
2021/09/04 13:45:35;;;;;;;3.67;3.37;;;26.00;99.90;;;;;;5037345;28;20233;-82
2021/09/04 13:48:01;;;;;;;4.90;4.40;;;26.00;99.90;;;;;;5036333;28;20710;-81
2021/09/04 13:50:26;;;;;;;4.67;4.27;;;26.00;99.90;;;;;;5038298;28;20174;-82
2021/09/04 13:52:52;;;;;;;6.13;3.73;;;26.00;99.90;;;;;;5039045;28;20202;-81
2021/09/04 13:55:18;;;;;;;3.70;3.40;;;26.00;99.90;;;;;;5035576;28;20177;-82
2021/09/04 13:57:43;;;;;;;4.43;4.03;;;25.90;99.90;;;;;;5035855;28;20202;-82
2021/09/04 14:00:09;;;;;;;4.80;4.30;;;25.90;99.90;;;;;;5018032;28;20231;-81
2021/09/04 14:02:35;;;;;;;4.90;4.17;;;26.00;99.90;;;;;;5036130;28;20201;-81
2021/09/04 14:05:00;;;;;;;8.10;4.80;;;26.00;99.90;;;;;;5037051;28;20408;-81
2021/09/04 14:07:26;;;;;;;4.23;3.93;;;26.10;99.90;;;;;;5036815;28;20182;-81
2021/09/04 14:09:51;;;;;;;3.47;3.27;;;26.20;99.90;;;;;;5036006;28;20182;-81
2021/09/04 14:12:17;;;;;;;5.90;4.80;;;26.10;99.90;;;;;;5036790;28;20675;-80
2021/09/04 14:14:42;;;;;;;5.50;3.90;;;26.00;99.90;;;;;;5036738;28;20185;-81
2021/09/04 14:17:08;;;;;;;14.03;12.53;;;26.00;99.90;;;;;;5036506;28;20205;-81
2021/09/04 14:19:34;;;;;;;4.83;4.37;;;25.80;99.90;;;;;;5036430;28;20547;-81
2021/09/04 14:22:00;;;;;;;4.87;4.20;;;25.80;99.90;;;;;;5032962;28;20194;-81
2021/09/04 14:24:25;;;;;;;4.50;3.83;;;25.70;99.90;;;;;;5034676;28;20177;-82
2021/09/04 14:26:51;;;;;;;3.90;3.60;;;25.60;99.90;;;;;;5035434;28;20360;-81
2021/09/04 14:29:17;;;;;;;5.20;4.33;;;25.60;99.90;;;;;;5016761;28;20174;-81
2021/09/04 14:31:43;;;;;;;4.73;4.20;;;25.50;99.90;;;;;;5034469;28;20452;-81
2021/09/04 14:34:08;;;;;;;3.50;3.20;;;25.50;99.90;;;;;;5034567;28;20186;-80
2021/09/04 14:36:34;;;;;;;5.13;4.63;;;25.40;99.90;;;;;;5034073;28;20270;-81
2021/09/04 14:38:59;;;;;;;5.20;3.93;;;25.40;99.90;;;;;;5035422;28;20205;-82
2021/09/04 14:41:25;;;;;;;4.77;4.37;;;25.40;99.90;;;;;;5037284;28;20200;-79
2021/09/04 14:43:50;;;;;;;3.87;3.57;;;25.40;99.90;;;;;;5037149;28;20523;-82
2021/09/04 14:46:16;;;;;;;4.50;4.10;;;25.40;99.90;;;;;;5037154;28;20209;-81
2021/09/04 14:48:42;;;;;;;4.80;4.40;;;25.30;99.90;;;;;;5037780;28;20182;-82
2021/09/04 14:51:07;;;;;;;6.10;4.53;;;25.40;99.90;;;;;;5037483;28;20206;-81
2021/09/04 14:53:33;;;;;;;9.97;4.90;;;25.40;99.90;;;;;;5036290;28;20545;-81
2021/09/04 14:55:58;;;;;;;4.50;4.10;;;25.40;99.90;;;;;;5037816;28;20217;-81
2021/09/04 14:58:24;;;;;;;8.90;3.47;;;25.30;99.90;;;;;;5037962;28;20206;-81
2021/09/04 15:00:49;;;;;;;4.30;3.90;;;25.30;99.90;;;;;;5036127;28;20202;-82
2021/09/04 15:03:15;;;;;;;4.50;4.07;;;25.20;99.90;;;;;;5036640;28;20385;-81
2021/09/04 15:05:41;;;;;;;4.80;4.00;;;25.20;99.90;;;;;;5036802;28;20170;-81
2021/09/04 15:08:06;;;;;;;4.37;3.97;;;25.10;99.90;;;;;;5035551;28;20209;-79
2021/09/04 15:10:32;;;;;;;4.30;3.80;;;25.10;99.90;;;;;;5035874;28;20178;-81
2021/09/04 15:12:57;;;;;;;4.20;3.90;;;25.00;99.90;;;;;;5018292;28;20174;-81
2021/09/04 15:15:23;;;;;;;5.07;4.17;;;24.90;99.90;;;;;;5019839;28;20208;-81
2021/09/04 15:17:49;;;;;;;4.37;3.97;;;24.90;99.90;;;;;;5037319;28;20197;-81
2021/09/04 15:20:15;;;;;;;5.00;4.30;;;24.90;99.90;;;;;;5037274;28;20420;-82
2021/09/04 15:22:40;;;;;;;3.97;3.67;;;25.00;99.90;;;;;;5037155;28;20186;-81
2021/09/04 15:25:06;;;;;;;5.00;4.50;;;25.00;99.90;;;;;;5037513;28;20185;-81
2021/09/04 15:27:32;;;;;;;4.73;4.17;;;25.00;99.90;;;;;;5037723;28;20178;-81
2021/09/04 15:29:57;;;;;;;4.53;4.07;;;25.00;99.90;;;;;;5036988;28;20170;-81
2021/09/04 15:32:23;;;;;;;4.40;3.97;;;24.90;99.90;;;;;;5037357;28;20883;-81
2021/09/04 15:34:49;;;;;;;4.73;4.33;;;24.90;99.90;;;;;;5037747;28;20174;-81
2021/09/04 15:37:14;;;;;;;4.00;3.70;;;24.90;99.90;;;;;;5037777;28;20284;-81
2021/09/04 15:39:40;;;;;;;6.47;4.10;;;24.80;99.90;;;;;;5020300;28;20601;-82
2021/09/04 15:42:05;;;;;;;5.60;3.70;;;24.70;99.90;;;;;;5036492;28;20190;-82
2021/09/04 15:44:31;;;;;;;3.70;3.40;;;24.60;99.90;;;;;;5036975;28;20166;-81
2021/09/04 15:46:58;;;;;;;5.60;3.50;;;24.60;99.90;;;;;;5036616;28;20802;-81
2021/09/04 15:49:24;;;;;;;4.63;3.80;;;24.60;99.90;;;;;;5036929;28;20182;-81
2021/09/04 15:51:49;;;;;;;9.50;3.80;;;24.60;99.90;;;;;;5036336;28;20804;-81
2021/09/04 15:54:15;;;;;;;4.77;4.37;;;24.50;99.90;;;;;;5036347;28;20228;-81
2021/09/04 15:56:41;;;;;;;3.87;3.47;;;24.50;99.90;;;;;;5036813;28;20602;-81
2021/09/04 15:59:07;;;;;;;5.23;4.20;;;24.40;99.90;;;;;;5036176;28;20496;-81
2021/09/04 16:01:33;;;;;;;8.53;3.90;;;24.30;99.90;;;;;;5037292;28;20186;-82
2021/09/04 16:04:02;;;;;;;4.90;3.97;;;24.30;99.90;;;;;;5018872;28;20421;-81
2021/09/04 16:06:27;;;;;;;7.03;3.83;;;24.30;99.90;;;;;;5036390;28;20190;-81
2021/09/04 16:08:53;;;;;;;4.20;3.80;;;24.20;99.90;;;;;;5036586;28;20428;-81
2021/09/04 16:11:18;;;;;;;4.30;3.90;;;24.30;99.90;;;;;;5035667;28;20623;-81
2021/09/04 16:13:44;;;;;;;5.27;4.80;;;24.20;99.90;;;;;;5035314;28;20192;-82
2021/09/04 16:16:09;;;;;;;5.20;4.33;;;24.20;99.90;;;;;;5035939;28;20181;-81
2021/09/04 16:18:35;;;;;;;5.87;3.53;;;24.20;99.90;;;;;;5036574;28;20216;-81
2021/09/04 16:21:00;;;;;;;4.63;3.80;;;24.30;99.90;;;;;;5036654;28;20193;-81
2021/09/04 16:23:26;;;;;;;5.73;4.07;;;24.30;99.90;;;;;;5036543;28;20230;-81
2021/09/04 16:25:53;;;;;;;4.27;3.87;;;24.30;99.90;;;;;;5036417;28;20201;-81
2021/09/04 16:28:19;;;;;;;3.67;3.37;;;24.30;99.90;;;;;;5035502;28;20261;-81
2021/09/04 16:30:44;;;;;;;5.43;3.73;;;24.30;99.90;;;;;;5035869;28;20955;-80
2021/09/04 16:33:10;;;;;;;4.50;3.37;;;24.30;99.90;;;;;;5017506;28;20197;-81
2021/09/04 16:35:35;;;;;;;5.70;4.33;;;24.30;99.90;;;;;;5036382;28;20674;-81
2021/09/04 16:38:01;;;;;;;4.63;3.90;;;24.30;99.90;;;;;;5035304;28;20193;-81
2021/09/04 16:40:27;;;;;;;5.60;3.93;;;24.20;99.90;;;;;;5035906;28;20178;-81
2021/09/04 16:42:52;;;;;;;4.83;3.60;;;24.20;99.90;;;;;;5035310;28;20220;-81
2021/09/04 16:45:18;;;;;;;5.73;4.10;;;24.20;99.90;;;;;;5036143;28;20646;-81
2021/09/04 16:47:43;;;;;;;7.33;3.63;;;24.20;99.90;;;;;;5036091;28;20205;-81
2021/09/04 16:50:10;;;;;;;3.80;3.50;;;24.20;99.90;;;;;;5035378;28;20182;-81
2021/09/04 16:52:35;;;;;;;5.13;3.67;;;24.10;99.90;;;;;;5034937;28;20682;-81
2021/09/04 16:55:01;;;;;;;7.93;4.03;;;24.00;99.90;;;;;;5034369;28;20512;-81
2021/09/04 16:57:26;;;;;;;3.73;3.43;;;24.00;99.90;;;;;;5035475;28;20289;-81
2021/09/04 16:59:52;;;;;;;4.13;3.80;;;24.00;99.90;;;;;;5035276;28;20170;-81
2021/09/04 17:02:17;;;;;;;5.43;4.87;;;23.90;99.90;;;;;;5035875;28;20200;-81
2021/09/04 17:04:43;;;;;;;5.17;4.47;;;23.90;99.90;;;;;;5035044;28;20174;-81
2021/09/04 17:07:09;;;;;;;4.73;4.17;;;23.80;99.90;;;;;;5034474;28;20173;-81
2021/09/04 17:09:34;;;;;;;5.70;5.03;;;23.80;99.90;;;;;;5034277;28;20170;-81
2021/09/04 17:12:00;;;;;;;5.17;4.67;;;23.70;99.90;;;;;;5015677;28;20194;-81
2021/09/04 17:14:25;;;;;;;6.57;5.67;;;23.70;99.90;;;;;;5033672;28;20253;-83